Time;durP1;ratioP1;P1;durP2;ratioP2;P2;SDS_P1;SDS_P2;PMS_P1;PMS_P2;Temp;Humidity;BMP_temperature;BMP_pressure;BME280_temperature;BME280_humidity;BME280_pressure;Samples;Min_cycle;Max_cycle;Signal;HPM_P1;HPM_P2
2022/11/19 00:01:18;;;;;;;7.25;4.15;;;;;;;;;;6176427;23;20108;-72
2022/11/19 00:03:44;;;;;;;5.65;3.72;;;;;;;;;;6176666;23;20354;-72
2022/11/19 00:06:12;;;;;;;7.25;4.18;;;;;;;;;;6172898;23;20109;-73
2022/11/19 00:08:38;;;;;;;5.78;3.80;;;;;;;;;;6169053;23;20051;-74
2022/11/19 00:11:05;;;;;;;4.97;3.45;;;;;;;;;;6175043;23;20523;-73
2022/11/19 00:13:31;;;;;;;5.80;3.50;;;;;;;;;;6174707;23;20024;-74
2022/11/19 00:16:01;;;;;;;6.55;4.18;;;;;;;;;;6170703;23;20488;-73
2022/11/19 00:18:28;;;;;;;4.65;3.30;;;;;;;;;;6175916;23;20382;-73
2022/11/19 00:20:55;;;;;;;5.15;3.17;;;;;;;;;;6174217;23;20032;-74
2022/11/19 00:23:21;;;;;;;4.95;3.33;;;;;;;;;;6177442;23;21880;-73
2022/11/19 00:25:47;;;;;;;5.88;3.40;;;;;;;;;;6173529;23;20034;-73
2022/11/19 00:28:13;;;;;;;7.47;3.80;;;;;;;;;;6173821;23;20052;-73
2022/11/19 00:30:39;;;;;;;6.18;3.92;;;;;;;;;;6173795;23;20099;-73
2022/11/19 00:33:05;;;;;;;6.10;4.10;;;;;;;;;;6176779;23;20461;-73
2022/11/19 00:35:32;;;;;;;5.57;3.90;;;;;;;;;;6174603;23;20020;-73
2022/11/19 00:37:57;;;;;;;5.15;3.42;;;;;;;;;;6177813;23;20021;-73
2022/11/19 00:40:23;;;;;;;5.43;3.22;;;;;;;;;;6173655;23;20431;-73
2022/11/19 00:45:34;;;;;;;4.90;2.95;;;;;;;;;;6175533;23;20058;-73
2022/11/19 00:48:00;;;;;;;5.53;3.42;;;;;;;;;;6175222;23;20029;-74
2022/11/19 00:50:26;;;;;;;5.20;3.40;;;;;;;;;;6174872;23;20025;-73
2022/11/19 00:52:52;;;;;;;5.53;3.20;;;;;;;;;;6173138;23;20025;-73
2022/11/19 00:55:18;;;;;;;6.40;3.30;;;;;;;;;;6173910;23;20469;-73
2022/11/19 00:57:44;;;;;;;4.82;3.08;;;;;;;;;;6174162;23;20129;-73
2022/11/19 01:00:11;;;;;;;5.78;3.50;;;;;;;;;;6173826;23;20033;-73
2022/11/19 01:02:37;;;;;;;4.07;2.65;;;;;;;;;;6171941;23;20372;-73
2022/11/19 01:05:03;;;;;;;5.50;3.25;;;;;;;;;;6174141;23;20037;-73
2022/11/19 01:07:29;;;;;;;9.73;3.63;;;;;;;;;;6176211;23;20017;-73
2022/11/19 01:09:55;;;;;;;5.07;2.95;;;;;;;;;;6175109;23;20088;-73
2022/11/19 01:12:21;;;;;;;6.50;2.97;;;;;;;;;;6177683;23;20056;-72
2022/11/19 01:14:47;;;;;;;4.32;2.70;;;;;;;;;;6178024;23;20017;-73
2022/11/19 01:17:13;;;;;;;4.65;3.08;;;;;;;;;;6177640;23;20036;-72
2022/11/19 01:19:39;;;;;;;5.18;2.95;;;;;;;;;;6177480;23;20515;-73
2022/11/19 01:22:05;;;;;;;7.18;3.45;;;;;;;;;;6178549;23;20013;-75
2022/11/19 01:24:31;;;;;;;5.20;2.80;;;;;;;;;;6178922;23;20040;-73
2022/11/19 01:26:57;;;;;;;5.32;3.38;;;;;;;;;;6178036;23;20036;-73
2022/11/19 01:29:23;;;;;;;4.55;3.03;;;;;;;;;;6178187;23;20016;-73
2022/11/19 01:31:49;;;;;;;4.70;3.08;;;;;;;;;;6177959;23;20040;-73
2022/11/19 01:34:15;;;;;;;6.05;3.20;;;;;;;;;;6176646;23;20162;-73
2022/11/19 01:36:41;;;;;;;4.72;2.70;;;;;;;;;;6176323;23;20095;-73
2022/11/19 01:39:07;;;;;;;5.57;3.65;;;;;;;;;;6174808;23;20017;-73
2022/11/19 01:41:33;;;;;;;4.75;3.17;;;;;;;;;;6174371;23;20043;-73
2022/11/19 01:44:07;;;;;;;6.20;3.50;;;;;;;;;;6168399;23;20036;-73
2022/11/19 01:46:32;;;;;;;;;;;;;;;;;;6176487;23;20130;-73
2022/11/19 01:49:01;;;;;;;5.28;3.30;;;;;;;;;;6174058;23;20234;-73
2022/11/19 01:51:27;;;;;;;4.82;3.13;;;;;;;;;;6173606;23;20017;-72
2022/11/19 01:53:55;;;;;;;4.68;3.25;;;;;;;;;;6179428;23;20365;-72
2022/11/19 01:56:23;;;;;;;6.15;3.30;;;;;;;;;;6177195;23;20492;-73
2022/11/19 01:58:52;;;;;;;5.63;3.28;;;;;;;;;;6174351;23;20064;-72
2022/11/19 02:01:19;;;;;;;5.93;3.30;;;;;;;;;;6177481;23;20024;-73
2022/11/19 02:03:46;;;;;;;5.35;3.60;;;;;;;;;;6173001;23;20033;-72
2022/11/19 02:06:12;;;;;;;5.40;3.25;;;;;;;;;;6171110;23;20087;-73
2022/11/19 02:08:41;;;;;;;5.72;3.22;;;;;;;;;;6179028;23;20210;-72
2022/11/19 02:11:07;;;;;;;5.35;3.00;;;;;;;;;;6179412;23;20025;-73
2022/11/19 02:13:41;;;;;;;6.13;3.10;;;;;;;;;;6175410;23;20353;-73
2022/11/19 02:16:12;;;;;;;6.35;4.05;;;;;;;;;;6174300;23;20127;-74
2022/11/19 02:18:53;;;;;;;5.25;3.50;;;;;;;;;;6175462;23;20017;-73
2022/11/19 02:21:25;;;;;;;6.32;3.97;;;;;;;;;;6175580;23;20064;-73
2022/11/19 02:24:00;;;;;;;7.13;4.38;;;;;;;;;;6178369;23;20103;-73
2022/11/19 02:26:29;;;;;;;5.32;3.22;;;;;;;;;;6175038;23;20025;-73
2022/11/19 02:29:09;;;;;;;5.97;3.88;;;;;;;;;;6174911;23;20032;-73
2022/11/19 02:31:38;;;;;;;6.43;3.60;;;;;;;;;;6178208;23;20064;-73
2022/11/19 02:34:25;;;;;;;5.57;3.92;;;;;;;;;;6173684;23;20090;-72
2022/11/19 02:37:11;;;;;;;6.28;3.85;;;;;;;;;;6177878;23;20459;-73
2022/11/19 02:39:48;;;;;;;5.20;3.30;;;;;;;;;;6161949;23;20021;-73
2022/11/19 02:42:20;;;;;;;6.85;3.45;;;;;;;;;;6169112;23;20463;-73
2022/11/19 02:45:02;;;;;;;6.80;3.80;;;;;;;;;;6177763;23;20394;-73
2022/11/19 02:47:34;;;;;;;7.72;3.55;;;;;;;;;;6176310;23;20021;-72
2022/11/19 02:50:03;;;;;;;6.78;3.75;;;;;;;;;;6175437;23;20127;-73
2022/11/19 02:52:29;;;;;;;6.63;3.80;;;;;;;;;;6173903;23;20457;-73
2022/11/19 02:54:56;;;;;;;6.10;3.42;;;;;;;;;;6177504;23;20029;-73
2022/11/19 02:57:22;;;;;;;6.95;4.32;;;;;;;;;;6170966;23;20024;-73
2022/11/19 03:05:28;;;;;;;5.65;3.47;;;;;;;;;;6174347;23;20021;-73
2022/11/19 03:07:54;;;;;;;6.03;3.78;;;;;;;;;;6175743;23;20159;-73
2022/11/19 03:10:23;;;;;;;6.38;3.67;;;;;;;;;;6176654;23;21520;-73
2022/11/19 03:16:40;;;;;;;7.20;3.85;;;;;;;;;;6176921;23;20028;-73
2022/11/19 03:18:33;;;;;;;6.65;3.70;;;;;;;;;;6169077;23;20025;-73
2022/11/19 03:21:08;;;;;;;7.25;3.80;;;;;;;;;;6176738;23;20396;-73
2022/11/19 03:23:39;;;;;;;7.28;4.28;;;;;;;;;;6173345;23;20021;-73
2022/11/19 03:26:05;;;;;;;6.97;3.75;;;;;;;;;;6175873;23;20017;-73
2022/11/19 03:28:34;;;;;;;6.30;3.80;;;;;;;;;;6176765;23;20564;-73
2022/11/19 03:31:00;;;;;;;6.75;4.43;;;;;;;;;;6174167;23;20319;-73
2022/11/19 03:33:29;;;;;;;8.95;4.45;;;;;;;;;;6173105;23;20445;-73
2022/11/19 03:35:57;;;;;;;7.20;3.92;;;;;;;;;;6174056;23;20029;-73
2022/11/19 03:38:29;;;;;;;8.05;4.35;;;;;;;;;;6169484;23;20131;-73
2022/11/19 03:40:56;;;;;;;6.40;3.85;;;;;;;;;;6171326;23;20021;-73
2022/11/19 03:43:25;;;;;;;7.97;4.00;;;;;;;;;;6171681;23;20449;-73
2022/11/19 03:45:53;;;;;;;7.78;4.63;;;;;;;;;;6171292;23;20461;-74
2022/11/19 03:48:21;;;;;;;7.78;4.75;;;;;;;;;;6168349;23;20489;-73
2022/11/19 03:50:49;;;;;;;7.43;4.57;;;;;;;;;;6171620;23;20052;-74
2022/11/19 03:53:16;;;;;;;8.38;4.05;;;;;;;;;;6173484;23;20025;-73
2022/11/19 03:55:44;;;;;;;7.68;3.92;;;;;;;;;;6173605;23;20369;-73
2022/11/19 03:58:11;;;;;;;6.35;4.22;;;;;;;;;;6174410;23;20024;-74
2022/11/19 04:00:37;;;;;;;6.85;4.50;;;;;;;;;;6171364;23;20028;-74
2022/11/19 04:03:04;;;;;;;6.68;4.22;;;;;;;;;;6176037;23;20025;-74
2022/11/19 04:05:30;;;;;;;7.15;4.47;;;;;;;;;;6176506;23;20091;-73
2022/11/19 04:07:56;;;;;;;5.72;3.80;;;;;;;;;;6178076;23;20028;-74
2022/11/19 04:10:22;;;;;;;7.72;4.78;;;;;;;;;;6175743;23;20355;-74
2022/11/19 04:12:48;;;;;;;8.13;3.95;;;;;;;;;;6174418;23;20357;-73
2022/11/19 04:15:14;;;;;;;6.78;4.65;;;;;;;;;;6170283;23;20025;-73
2022/11/19 04:17:40;;;;;;;7.68;4.32;;;;;;;;;;6174932;23;20021;-74
2022/11/19 04:20:07;;;;;;;8.57;4.68;;;;;;;;;;6174955;23;20181;-74
2022/11/19 04:22:33;;;;;;;7.40;4.60;;;;;;;;;;6177260;23;20098;-74
2022/11/19 04:24:59;;;;;;;7.80;4.70;;;;;;;;;;6172453;23;20032;-73
2022/11/19 04:27:25;;;;;;;6.78;4.60;;;;;;;;;;6174412;23;20017;-72
2022/11/19 04:29:52;;;;;;;6.20;3.92;;;;;;;;;;6173504;23;20055;-73
2022/11/19 04:32:18;;;;;;;7.28;4.85;;;;;;;;;;6176588;23;20096;-72
2022/11/19 04:34:44;;;;;;;7.90;4.90;;;;;;;;;;6173312;23;20408;-73
2022/11/19 04:37:10;;;;;;;6.95;4.55;;;;;;;;;;6176048;23;20029;-73
2022/11/19 04:39:36;;;;;;;6.93;4.28;;;;;;;;;;6171149;23;20436;-73
2022/11/19 04:42:03;;;;;;;7.63;4.75;;;;;;;;;;6175961;23;20031;-73
2022/11/19 04:44:29;;;;;;;7.75;4.13;;;;;;;;;;6175742;23;20013;-73
2022/11/19 04:46:55;;;;;;;7.88;4.70;;;;;;;;;;6174923;23;20025;-73
2022/11/19 04:49:21;;;;;;;8.43;4.72;;;;;;;;;;6172576;23;20476;-73
2022/11/19 04:51:47;;;;;;;7.32;4.63;;;;;;;;;;6172024;23;20087;-73
2022/11/19 04:54:13;;;;;;;7.15;4.53;;;;;;;;;;6175638;23;20267;-74
2022/11/19 04:56:39;;;;;;;8.98;4.97;;;;;;;;;;6177404;23;20044;-73
2022/11/19 04:59:05;;;;;;;7.35;3.95;;;;;;;;;;6176405;23;20361;-73
2022/11/19 05:01:31;;;;;;;9.43;4.75;;;;;;;;;;6172154;23;20021;-73
2022/11/19 05:03:57;;;;;;;7.10;4.32;;;;;;;;;;6169110;23;20136;-73
2022/11/19 05:06:23;;;;;;;7.95;4.80;;;;;;;;;;6172599;23;20048;-74
2022/11/19 05:08:49;;;;;;;6.90;4.60;;;;;;;;;;6175578;23;20017;-72
2022/11/19 05:11:15;;;;;;;10.77;4.50;;;;;;;;;;6176098;23;20036;-74
2022/11/19 05:13:41;;;;;;;7.90;4.47;;;;;;;;;;6170639;23;20025;-73
2022/11/19 05:16:07;;;;;;;8.13;4.25;;;;;;;;;;6171054;23;20021;-73
2022/11/19 05:18:34;;;;;;;8.18;4.32;;;;;;;;;;6174766;23;20025;-73
2022/11/19 05:21:00;;;;;;;8.00;4.70;;;;;;;;;;6176452;23;20048;-73
2022/11/19 05:23:26;;;;;;;8.18;4.65;;;;;;;;;;6168466;23;20703;-72
2022/11/19 05:25:52;;;;;;;10.27;5.03;;;;;;;;;;6166927;23;20112;-73
2022/11/19 05:28:18;;;;;;;8.40;4.88;;;;;;;;;;6170784;23;20416;-72
2022/11/19 05:30:44;;;;;;;9.05;4.90;;;;;;;;;;6169671;23;20101;-72
2022/11/19 05:33:10;;;;;;;6.82;4.43;;;;;;;;;;6170411;23;20025;-73
2022/11/19 05:35:36;;;;;;;9.05;4.93;;;;;;;;;;6172372;23;20020;-72
2022/11/19 05:38:02;;;;;;;8.15;4.40;;;;;;;;;;6172878;23;20025;-73
2022/11/19 05:40:28;;;;;;;7.53;5.00;;;;;;;;;;6170287;23;20021;-73
2022/11/19 05:42:54;;;;;;;8.95;4.68;;;;;;;;;;6175612;23;20027;-73
2022/11/19 05:45:20;;;;;;;7.15;4.30;;;;;;;;;;6175342;23;20040;-73
2022/11/19 05:47:46;;;;;;;7.60;4.57;;;;;;;;;;6176013;23;20108;-73
2022/11/19 05:50:12;;;;;;;8.30;5.03;;;;;;;;;;6174115;23;20068;-73
2022/11/19 05:52:38;;;;;;;6.90;4.47;;;;;;;;;;6175345;23;20063;-72
2022/11/19 05:55:05;;;;;;;8.65;4.80;;;;;;;;;;6176733;23;20021;-73
2022/11/19 05:57:31;;;;;;;10.43;4.60;;;;;;;;;;6174742;23;20120;-74
2022/11/19 05:59:57;;;;;;;8.00;5.10;;;;;;;;;;6175673;23;20091;-73
2022/11/19 06:02:23;;;;;;;7.50;4.45;;;;;;;;;;6171837;23;20017;-73
2022/11/19 06:04:49;;;;;;;8.10;4.57;;;;;;;;;;6173503;23;20374;-73
2022/11/19 06:07:15;;;;;;;9.52;5.22;;;;;;;;;;6171247;23;20342;-73
2022/11/19 06:09:41;;;;;;;8.52;4.95;;;;;;;;;;6177616;23;20028;-73
2022/11/19 06:12:07;;;;;;;6.53;4.13;;;;;;;;;;6172805;23;20052;-73
2022/11/19 06:14:33;;;;;;;14.35;4.38;;;;;;;;;;6177001;23;20013;-73
2022/11/19 06:16:59;;;;;;;7.97;4.30;;;;;;;;;;6172281;23;20109;-73
2022/11/19 06:19:26;;;;;;;8.27;5.05;;;;;;;;;;6173837;23;20024;-73
2022/11/19 06:21:52;;;;;;;6.85;4.15;;;;;;;;;;6171028;23;20025;-73
2022/11/19 06:24:19;;;;;;;8.55;5.00;;;;;;;;;;6172296;23;20056;-73
2022/11/19 06:26:45;;;;;;;8.82;5.10;;;;;;;;;;6174964;23;20155;-73
2022/11/19 06:29:14;;;;;;;8.80;4.53;;;;;;;;;;6172246;23;20025;-73
2022/11/19 06:31:40;;;;;;;7.13;4.68;;;;;;;;;;6173134;23;20032;-73
2022/11/19 06:34:07;;;;;;;9.95;5.03;;;;;;;;;;6169011;23;20476;-72
2022/11/19 06:36:33;;;;;;;10.88;5.82;;;;;;;;;;6167735;23;20017;-72
2022/11/19 06:38:59;;;;;;;10.27;5.28;;;;;;;;;;6175197;23;20468;-73
2022/11/19 06:41:25;;;;;;;8.00;4.53;;;;;;;;;;6174224;23;20361;-72
2022/11/19 06:43:51;;;;;;;7.38;4.57;;;;;;;;;;6172561;23;20575;-73
2022/11/19 06:46:17;;;;;;;7.93;5.00;;;;;;;;;;6168737;23;20500;-73
2022/11/19 06:48:43;;;;;;;9.75;5.70;;;;;;;;;;6171419;23;20021;-73
2022/11/19 06:51:09;;;;;;;8.38;5.05;;;;;;;;;;6177487;23;20029;-73
2022/11/19 06:53:35;;;;;;;7.47;4.82;;;;;;;;;;6176288;23;20021;-73
2022/11/19 06:56:02;;;;;;;8.35;4.88;;;;;;;;;;6169223;23;20025;-73
2022/11/19 06:58:29;;;;;;;9.68;4.50;;;;;;;;;;6170391;23;20196;-72
2022/11/19 07:00:56;;;;;;;7.28;4.47;;;;;;;;;;6172361;23;20021;-73
2022/11/19 07:03:22;;;;;;;7.35;4.43;;;;;;;;;;6169198;23;20033;-72
2022/11/19 07:05:48;;;;;;;7.55;4.93;;;;;;;;;;6174917;23;20555;-72
2022/11/19 07:08:15;;;;;;;9.18;5.38;;;;;;;;;;6174021;23;20028;-73
2022/11/19 07:10:41;;;;;;;9.00;4.88;;;;;;;;;;6171059;23;20013;-75
2022/11/19 07:13:07;;;;;;;7.45;4.47;;;;;;;;;;6172066;23;20099;-72
2022/11/19 07:15:34;;;;;;;10.55;5.15;;;;;;;;;;6176605;23;20615;-73
2022/11/19 07:18:00;;;;;;;8.43;5.38;;;;;;;;;;6175986;23;20083;-72
2022/11/19 07:20:26;;;;;;;7.82;5.00;;;;;;;;;;6177243;23;20021;-73
2022/11/19 07:22:52;;;;;;;7.75;4.18;;;;;;;;;;6175452;23;20021;-74
2022/11/19 07:25:19;;;;;;;7.90;5.40;;;;;;;;;;6179207;23;20481;-72
2022/11/19 07:27:46;;;;;;;9.20;4.93;;;;;;;;;;6173937;23;20021;-72
2022/11/19 07:30:12;;;;;;;6.53;4.65;;;;;;;;;;6171905;23;20357;-73
2022/11/19 07:32:39;;;;;;;7.68;4.60;;;;;;;;;;6175124;23;20117;-72
2022/11/19 07:35:05;;;;;;;6.95;4.43;;;;;;;;;;6171124;23;20044;-73
2022/11/19 07:37:31;;;;;;;10.82;5.10;;;;;;;;;;6176470;23;20478;-73
2022/11/19 07:39:57;;;;;;;7.38;4.45;;;;;;;;;;6176051;23;20041;-73
2022/11/19 07:45:08;;;;;;;9.73;5.15;;;;;;;;;;6173554;23;20559;-73
2022/11/19 07:47:35;;;;;;;8.30;5.05;;;;;;;;;;6173866;23;20048;-73
2022/11/19 07:50:01;;;;;;;7.43;4.60;;;;;;;;;;6173974;23;20044;-73
2022/11/19 07:52:27;;;;;;;8.50;4.32;;;;;;;;;;6173621;23;20009;-73
2022/11/19 07:54:54;;;;;;;7.53;4.88;;;;;;;;;;6177376;23;20024;-73
2022/11/19 07:57:20;;;;;;;7.32;4.38;;;;;;;;;;6176443;23;20108;-72
2022/11/19 07:59:46;;;;;;;6.72;4.70;;;;;;;;;;6174236;23;20056;-72
2022/11/19 08:02:12;;;;;;;8.70;4.65;;;;;;;;;;6169072;23;20417;-72
2022/11/19 08:04:38;;;;;;;8.82;4.93;;;;;;;;;;6173961;23;20028;-71
2022/11/19 08:07:04;;;;;;;7.32;4.50;;;;;;;;;;6169507;23;20380;-73
2022/11/19 08:09:30;;;;;;;7.85;4.15;;;;;;;;;;6170486;23;20472;-73
2022/11/19 08:11:57;;;;;;;8.60;5.50;;;;;;;;;;6171769;23;20013;-73
2022/11/19 08:14:23;;;;;;;6.43;4.05;;;;;;;;;;6169982;23;20147;-73
2022/11/19 08:19:34;;;;;;;8.50;4.60;;;;;;;;;;6174163;23;20020;-73
2022/11/19 08:22:00;;;;;;;6.78;4.00;;;;;;;;;;6174168;23;20104;-72
2022/11/19 08:24:26;;;;;;;7.57;4.57;;;;;;;;;;6170543;23;20029;-74
2022/11/19 08:26:52;;;;;;;9.77;5.50;;;;;;;;;;6173578;23;20083;-71
2022/11/19 08:29:20;;;;;;;7.60;4.72;;;;;;;;;;6173147;23;20048;-72
2022/11/19 08:31:46;;;;;;;8.48;5.07;;;;;;;;;;6172248;23;20075;-71
2022/11/19 08:34:13;;;;;;;8.23;5.10;;;;;;;;;;6173108;23;20088;-70
2022/11/19 08:36:39;;;;;;;8.68;4.90;;;;;;;;;;6174641;23;20029;-71
2022/11/19 08:39:05;;;;;;;10.88;5.57;;;;;;;;;;6169388;23;20385;-71
2022/11/19 08:44:17;;;;;;;8.57;5.05;;;;;;;;;;6174298;23;20334;-72
2022/11/19 08:46:43;;;;;;;7.28;4.55;;;;;;;;;;6171019;23;20037;-73
2022/11/19 08:49:10;;;;;;;8.95;5.15;;;;;;;;;;6171845;23;20040;-72
2022/11/19 08:51:36;;;;;;;9.55;5.85;;;;;;;;;;6175590;23;20034;-72
2022/11/19 08:54:03;;;;;;;9.35;5.70;;;;;;;;;;6167956;23;20037;-73
2022/11/19 08:56:29;;;;;;;9.27;5.45;;;;;;;;;;6173310;23;20041;-73
2022/11/19 08:58:55;;;;;;;9.35;5.40;;;;;;;;;;6174379;23;20445;-73
2022/11/19 09:01:21;;;;;;;8.70;5.57;;;;;;;;;;6172907;23;20437;-73
2022/11/19 09:03:48;;;;;;;9.38;6.05;;;;;;;;;;6173751;23;20039;-72
2022/11/19 09:06:14;;;;;;;10.75;6.07;;;;;;;;;;6176159;23;20025;-73
2022/11/19 09:08:40;;;;;;;8.48;5.43;;;;;;;;;;6177337;23;20032;-73
2022/11/19 09:11:11;;;;;;;10.85;5.80;;;;;;;;;;6173477;23;20100;-73
2022/11/19 09:13:37;;;;;;;10.38;6.10;;;;;;;;;;6178143;23;20028;-73
2022/11/19 09:16:03;;;;;;;7.97;5.60;;;;;;;;;;6174091;23;20021;-73
2022/11/19 09:18:30;;;;;;;9.27;5.95;;;;;;;;;;6175999;23;20009;-73
2022/11/19 09:20:56;;;;;;;9.05;5.88;;;;;;;;;;6175995;23;20048;-73
2022/11/19 09:23:23;;;;;;;8.52;5.75;;;;;;;;;;6172414;23;20025;-71
2022/11/19 09:25:56;;;;;;;10.57;6.55;;;;;;;;;;6172358;23;20033;-73
2022/11/19 09:28:22;;;;;;;9.57;6.03;;;;;;;;;;6175739;23;20023;-73
2022/11/19 09:30:57;;;;;;;10.07;5.50;;;;;;;;;;6177991;23;20285;-74
2022/11/19 09:33:24;;;;;;;9.63;5.53;;;;;;;;;;6175705;23;20442;-73
2022/11/19 09:35:50;;;;;;;8.18;5.68;;;;;;;;;;6176225;23;20087;-74
2022/11/19 09:38:16;;;;;;;9.60;5.93;;;;;;;;;;6177403;23;20473;-73
2022/11/19 09:40:47;;;;;;;9.48;5.57;;;;;;;;;;6173436;23;20469;-75
2022/11/19 09:43:18;;;;;;;8.95;5.65;;;;;;;;;;6169338;23;20470;-72
2022/11/19 09:45:45;;;;;;;6.90;5.28;;;;;;;;;;6171975;23;20057;-73
2022/11/19 09:48:26;;;;;;;10.02;5.75;;;;;;;;;;6171852;23;20445;-73
2022/11/19 09:50:58;;;;;;;9.05;6.20;;;;;;;;;;6173916;23;20453;-74
2022/11/19 09:53:29;;;;;;;9.63;5.43;;;;;;;;;;6173566;23;20021;-73
2022/11/19 09:55:58;;;;;;;;;;;;;;;;;;6174902;23;20506;-74
2022/11/19 09:58:30;;;;;;;8.43;4.90;;;;;;;;;;6171971;23;20023;-74
2022/11/19 10:00:58;;;;;;;8.75;5.75;;;;;;;;;;6177168;23;20049;-76
2022/11/19 10:03:25;;;;;;;9.50;6.35;;;;;;;;;;6172508;23;20048;-74
2022/11/19 10:06:06;;;;;;;9.07;5.15;;;;;;;;;;6170715;23;20029;-75
2022/11/19 10:08:32;;;;;;;8.98;5.80;;;;;;;;;;6172339;23;20135;-75
2022/11/19 10:10:58;;;;;;;10.32;6.35;;;;;;;;;;6176517;23;20408;-75
2022/11/19 10:13:44;;;;;;;10.27;5.78;;;;;;;;;;6186117;23;20081;-74
2022/11/19 10:16:10;;;;;;;10.60;5.68;;;;;;;;;;6176311;23;20775;-75
2022/11/19 10:18:55;;;;;;;8.07;5.43;;;;;;;;;;6177136;23;20105;-76
2022/11/19 10:21:25;;;;;;;9.05;5.35;;;;;;;;;;6175916;23;20056;-75
2022/11/19 10:23:51;;;;;;;8.82;5.50;;;;;;;;;;6179626;23;20029;-74
2022/11/19 10:26:19;;;;;;;8.68;5.20;;;;;;;;;;6172604;23;20045;-76
2022/11/19 10:28:51;;;;;;;7.07;4.78;;;;;;;;;;6178837;23;20051;-75
2022/11/19 10:31:25;;;;;;;9.98;4.57;;;;;;;;;;6176985;23;20025;-75
2022/11/19 10:33:53;;;;;;;7.85;5.43;;;;;;;;;;6175551;23;20025;-78
2022/11/19 10:36:21;;;;;;;7.93;4.78;;;;;;;;;;6178470;23;20108;-77
2022/11/19 10:38:47;;;;;;;7.70;4.88;;;;;;;;;;6174121;23;20025;-75
2022/11/19 10:41:15;;;;;;;7.43;4.93;;;;;;;;;;6178252;23;20445;-76
2022/11/19 10:43:53;;;;;;;9.73;5.13;;;;;;;;;;6177758;23;20100;-76
2022/11/19 10:46:20;;;;;;;8.38;5.20;;;;;;;;;;6175854;23;20055;-76
2022/11/19 10:48:49;;;;;;;8.88;5.60;;;;;;;;;;6177545;23;20112;-77
2022/11/19 10:51:22;;;;;;;7.72;4.65;;;;;;;;;;6175726;23;20025;-76
2022/11/19 10:53:48;;;;;;;7.85;4.68;;;;;;;;;;6176078;23;20151;-77
2022/11/19 10:56:19;;;;;;;6.95;4.28;;;;;;;;;;6177028;23;20048;-78
2022/11/19 10:58:48;;;;;;;7.25;4.72;;;;;;;;;;6179512;23;20346;-77
2022/11/19 11:01:20;;;;;;;9.48;5.30;;;;;;;;;;6180006;23;20090;-78
2022/11/19 11:03:49;;;;;;;8.90;4.22;;;;;;;;;;6179862;23;20079;-79
2022/11/19 11:06:15;;;;;;;9.90;5.30;;;;;;;;;;6178779;23;20405;-77
2022/11/19 11:08:48;;;;;;;7.07;4.60;;;;;;;;;;6177759;23;20021;-72
2022/11/19 11:17:18;;;;;;;6.95;4.43;;;;;;;;;;6178161;23;20040;-74
2022/11/19 11:19:44;;;;;;;5.72;3.80;;;;;;;;;;6178507;23;20024;-73
2022/11/19 11:22:10;;;;;;;8.77;4.50;;;;;;;;;;6177268;23;20064;-74
2022/11/19 11:24:37;;;;;;;8.20;4.25;;;;;;;;;;6179232;23;20238;-74
2022/11/19 11:27:20;;;;;;;9.43;4.93;;;;;;;;;;6175229;23;20028;-74
2022/11/19 11:29:46;;;;;;;7.70;4.45;;;;;;;;;;6176816;23;20025;-73
2022/11/19 11:32:30;;;;;;;7.70;4.20;;;;;;;;;;6178748;23;20040;-73
2022/11/19 11:34:56;;;;;;;7.88;4.65;;;;;;;;;;6175080;23;20492;-74
2022/11/19 11:37:23;;;;;;;7.65;4.88;;;;;;;;;;6177435;23;20119;-73
2022/11/19 11:39:52;;;;;;;6.70;4.70;;;;;;;;;;6178887;23;20306;-73
2022/11/19 11:42:19;;;;;;;7.22;4.95;;;;;;;;;;6178312;23;20025;-73
2022/11/19 11:44:58;;;;;;;9.63;5.18;;;;;;;;;;6179688;23;20112;-73
2022/11/19 11:47:38;;;;;;;7.63;4.72;;;;;;;;;;6179472;23;20017;-72
2022/11/19 11:50:19;;;;;;;7.57;5.18;;;;;;;;;;6174868;23;20029;-72
2022/11/19 11:52:46;;;;;;;7.80;4.53;;;;;;;;;;6175643;23;20021;-72
2022/11/19 11:55:30;;;;;;;7.95;4.57;;;;;;;;;;6177522;23;20484;-72
2022/11/19 11:57:59;;;;;;;6.72;4.28;;;;;;;;;;6175552;23;20025;-72
2022/11/19 12:00:41;;;;;;;8.25;4.53;;;;;;;;;;6175452;23;20017;-72
2022/11/19 12:03:12;;;;;;;6.80;3.70;;;;;;;;;;6175757;23;20032;-72
2022/11/19 12:05:57;;;;;;;7.90;4.88;;;;;;;;;;6178760;23;20099;-74
2022/11/19 12:08:40;;;;;;;7.90;4.43;;;;;;;;;;6172002;23;20021;-74
2022/11/19 12:11:10;;;;;;;7.07;4.20;;;;;;;;;;6175902;23;20116;-74
2022/11/19 12:14:09;;;;;;;6.60;3.97;;;;;;;;;;6174505;23;20025;-73
2022/11/19 12:16:42;;;;;;;7.43;3.60;;;;;;;;;;6142064;23;20290;-74
2022/11/19 12:19:11;;;;;;;7.55;3.70;;;;;;;;;;6177142;23;20476;-75
2022/11/19 12:22:01;;;;;;;6.43;3.55;;;;;;;;;;6176023;23;20116;-72
2022/11/19 12:24:39;;;;;;;8.38;3.42;;;;;;;;;;6172942;23;20021;-73
2022/11/19 12:27:05;;;;;;;6.82;4.03;;;;;;;;;;6177666;23;20079;-73
2022/11/19 12:29:43;;;;;;;6.18;3.55;;;;;;;;;;6177314;23;20064;-73
2022/11/19 12:32:17;;;;;;;6.53;3.90;;;;;;;;;;6175090;23;20079;-74
2022/11/19 12:34:43;;;;;;;;;;;;;;;;;;6176022;23;20021;-73
2022/11/19 12:37:21;;;;;;;6.47;4.22;;;;;;;;;;6174514;23;19916;-73
2022/11/19 12:40:07;;;;;;;7.18;3.75;;;;;;;;;;6174343;23;20068;-73
2022/11/19 12:42:44;;;;;;;6.65;3.97;;;;;;;;;;6175915;23;20611;-73
2022/11/19 12:45:13;;;;;;;6.85;3.90;;;;;;;;;;6177147;23;20047;-76
2022/11/19 12:47:45;;;;;;;6.18;4.05;;;;;;;;;;6176326;23;20025;-76
2022/11/19 12:50:13;;;;;;;6.93;4.22;;;;;;;;;;6175377;23;20036;-75
2022/11/19 12:53:14;;;;;;;5.88;3.70;;;;;;;;;;6175270;23;20044;-75
2022/11/19 12:55:49;;;;;;;7.95;4.82;;;;;;;;;;6113545;23;20026;-74
2022/11/19 12:58:20;;;;;;;5.65;3.72;;;;;;;;;;6167475;23;20068;-73
2022/11/19 13:00:59;;;;;;;5.65;3.65;;;;;;;;;;6178309;23;20099;-73
2022/11/19 13:03:35;;;;;;;5.63;3.85;;;;;;;;;;6174047;23;20017;-73
2022/11/19 13:06:08;;;;;;;6.03;3.67;;;;;;;;;;6173955;23;20123;-74
2022/11/19 13:08:39;;;;;;;6.18;3.72;;;;;;;;;;6173520;23;20156;-72
2022/11/19 13:11:05;;;;;;;7.50;4.10;;;;;;;;;;6176979;23;20029;-72
2022/11/19 13:13:32;;;;;;;5.28;3.25;;;;;;;;;;6179070;23;20087;-72
2022/11/19 13:16:08;;;;;;;5.72;3.65;;;;;;;;;;6179078;23;20491;-71
2022/11/19 13:18:36;;;;;;;5.63;3.60;;;;;;;;;;6174364;23;20459;-70
2022/11/19 13:21:04;;;;;;;6.22;3.50;;;;;;;;;;6174967;23;20029;-73
2022/11/19 13:23:37;;;;;;;6.55;3.60;;;;;;;;;;6175422;23;20028;-71
2022/11/19 13:26:11;;;;;;;6.65;3.50;;;;;;;;;;6173320;23;20036;-72
2022/11/19 13:28:42;;;;;;;6.00;3.60;;;;;;;;;;6170604;23;20025;-71
2022/11/19 13:31:17;;;;;;;7.07;3.80;;;;;;;;;;6174042;23;20485;-71
2022/11/19 13:33:48;;;;;;;4.63;3.15;;;;;;;;;;6173601;23;20436;-72
2022/11/19 13:36:18;;;;;;;6.30;3.72;;;;;;;;;;6174749;23;20050;-73
2022/11/19 13:38:49;;;;;;;6.50;3.63;;;;;;;;;;6172486;23;20052;-72
2022/11/19 13:41:19;;;;;;;5.10;3.58;;;;;;;;;;6171169;23;20032;-72
2022/11/19 13:46:34;;;;;;;6.03;3.47;;;;;;;;;;6171261;23;20437;-72
2022/11/19 13:49:02;;;;;;;5.70;3.08;;;;;;;;;;6170278;23;20039;-70
2022/11/19 13:51:38;;;;;;;6.07;3.45;;;;;;;;;;6171392;23;20434;-71
2022/11/19 13:54:07;;;;;;;7.47;3.90;;;;;;;;;;6171212;23;20047;-71
2022/11/19 13:56:37;;;;;;;5.97;3.50;;;;;;;;;;6174574;23;20087;-71
2022/11/19 13:59:03;;;;;;;5.80;3.50;;;;;;;;;;6173181;23;20029;-70
2022/11/19 14:01:48;;;;;;;5.10;3.28;;;;;;;;;;6174046;23;20095;-71
2022/11/19 14:04:33;;;;;;;5.65;3.53;;;;;;;;;;6173867;23;20025;-71
2022/11/19 14:07:18;;;;;;;5.45;3.20;;;;;;;;;;6174792;23;20021;-71
2022/11/19 14:09:47;;;;;;;6.13;3.53;;;;;;;;;;6173704;23;20136;-74
2022/11/19 14:12:19;;;;;;;6.85;3.08;;;;;;;;;;6171546;23;20021;-71
2022/11/19 14:26:40;;;;;;;5.57;3.28;;;;;;;;;;6170239;23;20461;-71
2022/11/19 14:29:18;;;;;;;10.82;3.90;;;;;;;;;;6170213;23;20043;-71
2022/11/19 14:32:05;;;;;;;7.47;3.70;;;;;;;;;;6171503;23;20025;-70
2022/11/19 14:34:32;;;;;;;6.93;3.63;;;;;;;;;;6141041;23;20025;-70
2022/11/19 14:37:01;;;;;;;6.13;3.53;;;;;;;;;;6174550;23;20025;-71
2022/11/19 14:39:30;;;;;;;7.30;3.28;;;;;;;;;;6173069;23;20092;-71
2022/11/19 14:42:15;;;;;;;4.78;3.03;;;;;;;;;;6172669;23;20231;-71
2022/11/19 14:44:41;;;;;;;6.32;3.72;;;;;;;;;;6172275;23;20072;-72
2022/11/19 14:47:23;;;;;;;6.85;3.55;;;;;;;;;;6174241;23;20461;-73
2022/11/19 14:49:55;;;;;;;6.90;3.92;;;;;;;;;;6172829;23;20025;-72
2022/11/19 14:52:26;;;;;;;6.15;3.65;;;;;;;;;;6173399;23;20036;-72
2022/11/19 14:55:12;;;;;;;6.25;3.60;;;;;;;;;;6172142;23;20091;-73
2022/11/19 14:57:40;;;;;;;6.15;3.88;;;;;;;;;;6161895;23;20062;-73
2022/11/19 15:00:26;;;;;;;6.20;3.70;;;;;;;;;;6174144;23;20264;-74
2022/11/19 15:02:53;;;;;;;7.88;4.30;;;;;;;;;;6175603;23;20095;-73
2022/11/19 15:05:42;;;;;;;29.20;14.13;;;;;;;;;;6169352;23;20063;-74
2022/11/19 15:08:18;;;;;;;11.38;6.15;;;;;;;;;;6167072;23;20024;-73
2022/11/19 15:11:03;;;;;;;9.73;6.00;;;;;;;;;;6175949;23;20091;-73
2022/11/19 15:13:30;;;;;;;21.10;13.43;;;;;;;;;;6177617;23;20025;-72
2022/11/19 15:16:06;;;;;;;14.48;8.93;;;;;;;;;;6180927;23;20017;-72
2022/11/19 15:18:32;;;;;;;19.25;9.38;;;;;;;;;;6176556;23;20392;-72
2022/11/19 15:21:06;;;;;;;18.63;7.22;;;;;;;;;;6172973;23;20063;-72
2022/11/19 15:23:51;;;;;;;10.32;5.88;;;;;;;;;;6175518;23;20032;-72
2022/11/19 15:26:17;;;;;;;10.93;7.55;;;;;;;;;;6195236;23;20020;-73
2022/11/19 15:29:01;;;;;;;16.25;9.98;;;;;;;;;;6177867;23;20104;-73
2022/11/19 15:31:39;;;;;;;16.42;8.25;;;;;;;;;;6178225;23;20021;-72
2022/11/19 15:34:14;;;;;;;12.73;7.10;;;;;;;;;;6174860;23;20032;-73
2022/11/19 15:36:43;;;;;;;10.60;5.93;;;;;;;;;;6178302;23;20071;-73